Time;durP1;ratioP1;P1;durP2;ratioP2;P2;SDS_P1;SDS_P2;PMS_P1;PMS_P2;Temp;Humidity;BMP_temperature;BMP_pressure;BME280_temperature;BME280_humidity;BME280_pressure;Samples;Min_cycle;Max_cycle;Signal;HPM_P1;HPM_P2
2022/07/31 00:01:17;;;;;;;7.60;6.70;;;;;;;16.44;100.00;96063.88;108492;1268;22524;-82
2022/07/31 00:03:48;;;;;;;8.70;7.80;;;;;;;16.45;100.00;96065.81;108458;1268;23882;-81
2022/07/31 00:06:21;;;;;;;8.70;7.70;;;;;;;16.42;100.00;96060.52;108417;1268;22689;-81
2022/07/31 00:08:52;;;;;;;9.10;8.00;;;;;;;16.39;100.00;96063.10;108173;1268;137475;-81
2022/07/31 00:11:23;;;;;;;10.20;8.70;;;;;;;16.37;100.00;96057.88;108571;1268;22731;-81
2022/07/31 00:13:55;;;;;;;10.20;8.60;;;;;;;16.33;100.00;96053.94;108648;1268;22554;-81
2022/07/31 00:16:26;;;;;;;10.70;8.40;;;;;;;16.30;100.00;96045.23;108564;1268;24469;-82
2022/07/31 00:18:57;;;;;;;9.10;7.90;;;;;;;16.28;100.00;96050.23;108515;1268;116782;-81
2022/07/31 00:21:28;;;;;;;9.40;8.10;;;;;;;16.26;100.00;96051.14;108716;1268;22622;-82
2022/07/31 00:23:59;;;;;;;10.10;9.00;;;;;;;16.22;100.00;96054.55;108466;1268;25361;-81
2022/07/31 00:26:31;;;;;;;9.90;8.10;;;;;;;16.20;100.00;96058.44;108464;1268;22559;-81
2022/07/31 00:29:02;;;;;;;8.70;7.80;;;;;;;16.20;100.00;96058.22;108252;1268;123902;-81
2022/07/31 00:31:33;;;;;;;8.40;7.50;;;;;;;16.20;100.00;96055.23;108544;1268;22538;-82
2022/07/31 00:34:07;;;;;;;8.10;6.90;;;;;;;16.20;100.00;96056.67;108530;1268;22539;-82
2022/07/31 00:36:39;;;;;;;7.10;6.40;;;;;;;16.19;100.00;96058.25;108635;1268;22576;-82
2022/07/31 00:39:10;;;;;;;6.90;6.20;;;;;;;16.20;100.00;96054.85;108511;1268;23888;-83
2022/07/31 00:41:43;;;;;;;8.10;7.00;;;;;;;16.20;100.00;96062.65;108593;1268;22612;-83
2022/07/31 00:44:15;;;;;;;8.50;6.40;;;;;;;16.21;100.00;96061.92;108436;1268;23853;-82
2022/07/31 00:46:47;;;;;;;9.10;7.00;;;;;;;16.18;100.00;96054.11;108410;1268;32052;-82
2022/07/31 00:49:19;;;;;;;7.30;6.50;;;;;;;16.18;100.00;96051.80;108450;1268;22552;-82
2022/07/31 00:51:52;;;;;;;7.70;6.40;;;;;;;16.18;100.00;96046.26;108559;1268;24188;-82
2022/07/31 00:54:24;;;;;;;7.70;6.90;;;;;;;16.17;100.00;96050.44;108425;1271;22680;-82
2022/07/31 00:56:55;;;;;;;7.30;6.50;;;;;;;16.19;100.00;96053.35;108580;1268;34814;-82
2022/07/31 00:59:26;;;;;;;7.20;6.40;;;;;;;16.18;100.00;96055.00;108653;1268;22538;-82
2022/07/31 01:01:59;;;;;;;7.80;6.60;;;;;;;16.16;100.00;96055.45;108702;1268;22531;-82
2022/07/31 01:04:30;;;;;;;7.90;6.70;;;;;;;16.16;100.00;96051.84;108696;1268;25239;-82
2022/07/31 01:07:01;;;;;;;7.30;6.40;;;;;;;16.15;100.00;96050.66;108258;1268;294289;-82
2022/07/31 01:09:32;;;;;;;7.20;6.10;;;;;;;16.13;100.00;96051.08;108674;1268;22573;-81
2022/07/31 01:12:07;;;;;;;7.90;6.70;;;;;;;16.12;100.00;96051.09;108679;1268;22538;-82
2022/07/31 01:14:46;;;;;;;7.60;6.50;;;;;;;16.11;100.00;96050.45;108562;1268;24044;-82
2022/07/31 01:17:18;;;;;;;7.00;6.30;;;;;;;16.11;100.00;96051.52;108411;1268;29179;-82
2022/07/31 01:19:53;;;;;;;9.80;7.10;;;;;;;16.12;100.00;96050.71;108688;1268;22615;-82
2022/07/31 01:22:42;;;;;;;7.40;6.70;;;;;;;16.12;100.00;96047.44;108571;1268;22668;-82
2022/07/31 01:25:33;;;;;;;6.30;5.70;;;;;;;16.12;100.00;96044.52;108703;1268;22528;-82
2022/07/31 01:28:22;;;;;;;8.50;6.10;;;;;;;16.12;100.00;96050.56;108570;1268;43012;-82
2022/07/31 01:31:00;;;;;;;6.20;5.60;;;;;;;16.12;100.00;96051.41;108591;1268;22551;-82
2022/07/31 01:33:41;;;;;;;6.10;5.50;;;;;;;16.13;100.00;96052.27;108558;1268;23880;-83
2022/07/31 01:36:17;;;;;;;8.10;5.90;;;;;;;16.11;100.00;96050.09;108612;1267;22522;-81
2022/07/31 01:38:53;;;;;;;6.50;4.90;;;;;;;16.10;100.00;96050.67;108385;1268;33488;-81
2022/07/31 01:41:28;;;;;;;7.30;5.80;;;;;;;16.08;100.00;96056.33;108430;1268;22571;-81
2022/07/31 01:44:03;;;;;;;5.50;4.20;;;;;;;16.05;100.00;96053.02;108567;1268;22552;-81
2022/07/31 01:46:36;;;;;;;6.90;5.10;;;;;;;16.04;100.00;96049.70;108443;1268;22739;-81
2022/07/31 01:49:09;;;;;;;5.30;4.50;;;;;;;16.04;100.00;96046.77;108394;1268;22795;-82
2022/07/31 01:51:42;;;;;;;5.00;4.40;;;;;;;16.03;100.00;96042.24;108659;1268;23885;-81
2022/07/31 01:54:14;;;;;;;5.20;4.10;;;;;;;16.03;100.00;96043.52;108514;1268;22572;-82
2022/07/31 01:56:49;;;;;;;5.70;4.80;;;;;;;16.01;100.00;96039.32;108526;1267;36086;-81
2022/07/31 01:59:22;;;;;;;5.40;4.60;;;;;;;16.00;100.00;96036.77;108556;1268;22686;-82
2022/07/31 02:01:54;;;;;;;4.80;4.30;;;;;;;15.99;100.00;96035.90;108632;1268;22557;-82
2022/07/31 02:04:26;;;;;;;5.10;3.90;;;;;;;15.98;100.00;96029.21;108545;1268;22516;-83
2022/07/31 02:06:58;;;;;;;5.10;3.40;;;;;;;15.96;100.00;96028.85;108515;1267;34742;-82
2022/07/31 02:09:32;;;;;;;4.80;4.00;;;;;;;15.95;100.00;96030.27;108420;1268;22527;-81
2022/07/31 02:12:05;;;;;;;5.20;4.00;;;;;;;15.95;100.00;96029.11;108493;1268;22538;-82
2022/07/31 02:14:36;;;;;;;4.50;3.30;;;;;;;15.96;100.00;96028.91;108477;1268;22542;-81
2022/07/31 02:17:08;;;;;;;2.60;2.40;;;;;;;15.95;100.00;96028.42;108417;1268;40772;-81
2022/07/31 02:19:41;;;;;;;3.20;2.90;;;;;;;15.94;100.00;96031.67;108454;1268;22464;-82
2022/07/31 02:22:12;;;;;;;2.80;2.50;;;;;;;15.94;100.00;96030.85;108479;1268;22526;-82
2022/07/31 02:24:44;;;;;;;2.20;2.00;;;;;;;15.95;100.00;96028.20;108420;1268;22549;-82
2022/07/31 02:27:16;;;;;;;2.60;2.00;;;;;;;15.97;100.00;96026.64;108413;1268;48352;-82
2022/07/31 02:29:50;;;;;;;1.80;1.60;;;;;;;15.96;100.00;96025.70;108501;1268;23616;-82
2022/07/31 02:32:24;;;;;;;1.80;1.70;;;;;;;15.95;100.00;96024.36;108463;1268;22547;-81
2022/07/31 02:34:57;;;;;;;2.90;1.80;;;;;;;15.93;100.00;96020.48;108414;1268;22758;-82
2022/07/31 02:37:29;;;;;;;2.20;1.80;;;;;;;15.91;100.00;96016.38;108380;1268;34858;-80
2022/07/31 02:40:02;;;;;;;1.60;1.40;;;;;;;15.89;100.00;96014.89;108448;1268;22641;-82
2022/07/31 02:42:34;;;;;;;2.00;1.80;;;;;;;15.87;100.00;96017.75;108444;1267;23135;-82
2022/07/31 02:45:10;;;;;;;1.50;1.30;;;;;;;15.87;100.00;96016.52;108564;1268;22555;-81
2022/07/31 02:47:41;;;;;;;1.40;1.30;;;;;;;15.87;100.00;96010.70;108230;1268;141360;-81
2022/07/31 02:50:15;;;;;;;1.40;1.30;;;;;;;15.87;100.00;96009.58;108452;1267;25386;-81
2022/07/31 02:52:47;;;;;;;1.90;1.70;;;;;;;15.89;100.00;96004.42;108503;1268;23205;-81
2022/07/31 02:55:19;;;;;;;1.50;1.40;;;;;;;15.91;100.00;96000.47;108419;1267;22561;-81
2022/07/31 02:57:50;;;;;;;2.10;1.60;;;;;;;15.91;100.00;95998.48;108335;1268;41264;-81
2022/07/31 03:00:26;;;;;;;2.30;1.80;;;;;;;15.88;100.00;95997.55;108433;1268;24231;-81
2022/07/31 03:02:59;;;;;;;2.90;1.40;;;;;;;15.89;100.00;95995.18;108466;1268;22671;-81
2022/07/31 03:05:31;;;;;;;1.40;1.20;;;;;;;15.92;100.00;95995.31;108436;1268;22528;-81
2022/07/31 03:08:02;;;;;;;1.20;1.10;;;;;;;15.93;100.00;95997.21;108315;1267;34911;-81
2022/07/31 03:10:34;;;;;;;1.80;1.00;;;;;;;15.96;100.00;96002.34;108412;1268;24159;-81
2022/07/31 03:13:07;;;;;;;2.60;1.40;;;;;;;15.97;100.00;95999.02;108396;1268;22556;-81
2022/07/31 03:15:42;;;;;;;2.50;1.60;;;;;;;15.97;100.00;95999.30;108430;1268;23049;-81
2022/07/31 03:18:15;;;;;;;1.80;1.60;;;;;;;15.98;99.99;96000.80;108355;1268;113096;-81
2022/07/31 03:20:50;;;;;;;2.10;1.60;;;;;;;16.00;99.99;96001.25;108494;1268;23202;-81
2022/07/31 03:23:24;;;;;;;2.00;1.80;;;;;;;16.02;99.99;96000.40;108476;1268;22533;-81
2022/07/31 03:25:57;;;;;;;1.80;1.40;;;;;;;16.03;99.78;96000.67;108470;1268;22854;-81
2022/07/31 03:28:28;;;;;;;1.40;1.30;;;;;;;16.05;99.73;96001.98;108274;1267;98760;-81
2022/07/31 03:30:59;;;;;;;1.50;1.20;;;;;;;16.08;99.60;95994.89;108419;1268;22604;-81
2022/07/31 03:33:31;;;;;;;1.30;1.20;;;;;;;16.09;99.42;95995.31;108403;1268;22546;-82
2022/07/31 03:36:03;;;;;;;1.90;1.30;;;;;;;16.08;99.29;95996.80;108448;1267;25416;-81
2022/07/31 03:38:36;;;;;;;1.70;1.00;;;;;;;16.08;99.28;95989.45;108385;1268;37194;-81
2022/07/31 03:41:08;;;;;;;0.80;0.80;;;;;;;16.07;99.03;95992.95;108417;1268;22574;-82
2022/07/31 03:43:42;;;;;;;2.40;1.00;;;;;;;16.06;99.11;95992.17;108536;1268;22608;-82
2022/07/31 03:46:14;;;;;;;0.90;0.80;;;;;;;16.06;99.06;95994.82;108423;1267;22972;-82
2022/07/31 03:48:47;;;;;;;0.70;0.70;;;;;;;16.06;98.91;95993.05;108143;1267;155394;-81
2022/07/31 03:51:19;;;;;;;0.70;0.70;;;;;;;16.05;98.90;95993.70;108438;1268;23858;-81
2022/07/31 03:53:51;;;;;;;1.10;0.60;;;;;;;16.05;98.82;95990.50;108435;1268;22561;-82
2022/07/31 03:56:23;;;;;;;1.40;0.70;;;;;;;16.06;98.69;95992.14;108511;1268;25373;-81
2022/07/31 03:58:55;;;;;;;0.80;0.60;;;;;;;16.06;98.73;95987.95;108317;1267;114308;-81
2022/07/31 04:01:26;;;;;;;1.10;0.70;;;;;;;16.05;98.68;95993.80;108570;1267;22554;-81
2022/07/31 04:04:01;;;;;;;0.60;0.60;;;;;;;16.04;98.75;95993.83;108414;1268;22473;-82
2022/07/31 04:06:32;;;;;;;0.90;0.60;;;;;;;16.03;98.89;95992.48;108395;1268;23906;-81
2022/07/31 04:09:03;;;;;;;0.90;0.70;;;;;;;16.00;99.04;95994.63;108221;1267;132561;-82
2022/07/31 04:11:35;;;;;;;0.80;0.70;;;;;;;16.01;99.11;95995.17;108487;1268;23826;-81
2022/07/31 04:14:06;;;;;;;0.80;0.60;;;;;;;16.02;99.25;95992.94;108485;1268;23847;-80
2022/07/31 04:16:40;;;;;;;0.80;0.80;;;;;;;16.00;99.42;95999.40;108385;1268;22754;-80
2022/07/31 04:19:11;;;;;;;1.50;0.60;;;;;;;15.99;99.56;95997.48;108559;1267;22551;-79
2022/07/31 04:21:42;;;;;;;1.50;0.80;;;;;;;15.98;99.75;95995.61;108481;1267;23196;-79
2022/07/31 04:24:17;;;;;;;0.50;0.50;;;;;;;15.97;99.98;95990.98;108386;1267;23700;-79
2022/07/31 04:26:49;;;;;;;0.80;0.70;;;;;;;15.95;100.00;95991.23;108119;1267;174801;-80
2022/07/31 04:29:20;;;;;;;0.70;0.70;;;;;;;15.95;100.00;95995.43;108430;1268;22539;-80
2022/07/31 04:31:51;;;;;;;0.60;0.60;;;;;;;15.95;100.00;95995.21;108419;1267;22557;-81
2022/07/31 04:34:23;;;;;;;2.80;0.80;;;;;;;15.96;100.00;95997.24;108363;1268;23249;-80
2022/07/31 04:36:54;;;;;;;0.50;0.50;;;;;;;15.96;100.00;95998.28;108296;1268;51152;-80
2022/07/31 04:39:25;;;;;;;1.80;0.60;;;;;;;15.94;100.00;96001.30;108453;1267;22584;-80
2022/07/31 04:41:56;;;;;;;2.20;0.80;;;;;;;15.92;100.00;96000.30;108448;1268;22531;-80
2022/07/31 04:44:28;;;;;;;1.10;0.60;;;;;;;15.90;100.00;96000.58;108425;1267;22828;-81
2022/07/31 04:47:02;;;;;;;0.70;0.70;;;;;;;15.91;100.00;96001.57;108175;1268;135725;-80
2022/07/31 04:49:34;;;;;;;0.90;0.60;;;;;;;15.92;100.00;96001.98;108504;1268;22612;-80
2022/07/31 04:52:07;;;;;;;0.70;0.60;;;;;;;15.94;100.00;96004.94;108484;1267;22520;-81
2022/07/31 04:54:39;;;;;;;1.40;0.60;;;;;;;15.96;100.00;96001.73;108469;1267;22603;-81
2022/07/31 04:57:10;;;;;;;1.80;0.80;;;;;;;15.98;100.00;96001.41;108331;1268;34065;-80
2022/07/31 04:59:41;;;;;;;0.50;0.40;;;;;;;15.97;100.00;96006.45;108475;1268;22548;-80
2022/07/31 05:02:13;;;;;;;0.70;0.60;;;;;;;15.96;100.00;96004.73;108374;1268;23396;-80
2022/07/31 05:04:44;;;;;;;0.70;0.50;;;;;;;15.95;100.00;96011.00;108410;1268;22674;-80
2022/07/31 05:07:16;;;;;;;1.20;0.50;;;;;;;15.94;100.00;96013.65;108387;1268;34819;-80
2022/07/31 05:09:47;;;;;;;0.90;0.50;;;;;;;15.94;100.00;96011.14;108406;1268;22904;-81
2022/07/31 05:12:19;;;;;;;0.50;0.40;;;;;;;15.94;100.00;96017.23;108453;1268;22544;-79
2022/07/31 05:14:50;;;;;;;0.60;0.30;;;;;;;15.92;100.00;96021.53;108457;1268;22484;-80
2022/07/31 05:17:22;;;;;;;0.60;0.40;;;;;;;15.90;100.00;96023.83;108286;1268;31111;-80
2022/07/31 05:19:53;;;;;;;0.60;0.40;;;;;;;15.88;100.00;96031.77;108419;1268;22734;-80
2022/07/31 05:22:24;;;;;;;1.30;0.20;;;;;;;15.84;100.00;96031.45;108458;1267;24214;-80
2022/07/31 05:24:56;;;;;;;0.40;0.40;;;;;;;15.82;100.00;96034.29;108421;1268;22460;-80
2022/07/31 05:27:27;;;;;;;0.30;0.30;;;;;;;15.84;100.00;96040.39;108387;1268;40797;-80
2022/07/31 05:29:59;;;;;;;0.90;0.20;;;;;;;15.87;100.00;96040.55;108453;1268;22659;-79
2022/07/31 05:32:30;;;;;;;0.30;0.10;;;;;;;15.86;100.00;96040.98;108474;1267;24360;-80
2022/07/31 05:35:02;;;;;;;0.10;0.10;;;;;;;15.87;100.00;96040.71;108419;1268;22519;-79
2022/07/31 05:37:34;;;;;;;0.40;0.20;;;;;;;15.86;100.00;96038.54;108275;1267;92048;-79
2022/07/31 05:40:12;;;;;;;0.50;0.40;;;;;;;15.87;100.00;96043.16;108372;1268;23858;-79
2022/07/31 05:42:44;;;;;;;0.80;0.50;;;;;;;15.84;100.00;96046.48;108486;1268;22555;-78
2022/07/31 05:45:16;;;;;;;0.50;0.40;;;;;;;15.78;100.00;96047.48;108430;1268;22548;-79
2022/07/31 05:47:47;;;;;;;0.30;0.30;;;;;;;15.78;100.00;96051.26;108196;1267;92448;-79
2022/07/31 05:50:20;;;;;;;0.30;0.30;;;;;;;15.76;100.00;96046.26;108377;1268;24073;-79
2022/07/31 05:52:52;;;;;;;0.30;0.30;;;;;;;15.71;100.00;96057.38;108390;1268;25370;-79
2022/07/31 05:55:27;;;;;;;0.40;0.20;;;;;;;15.73;100.00;96054.63;108447;1268;22612;-79
2022/07/31 05:58:01;;;;;;;0.20;0.20;;;;;;;15.76;100.00;96051.82;108447;1267;31898;-79
2022/07/31 06:00:33;;;;;;;0.30;0.30;;;;;;;15.76;100.00;96055.55;108418;1268;22806;-79
2022/07/31 06:03:06;;;;;;;0.30;0.20;;;;;;;15.76;100.00;96062.76;108499;1268;23250;-79
2022/07/31 06:05:38;;;;;;;0.30;0.30;;;;;;;15.71;100.00;96066.01;108414;1268;22539;-78
2022/07/31 06:08:11;;;;;;;0.30;0.30;;;;;;;15.70;100.00;96062.02;107367;1268;1262711;-79
2022/07/31 06:10:43;;;;;;;0.30;0.20;;;;;;;15.69;100.00;96064.56;108439;1267;22524;-79
2022/07/31 06:13:15;;;;;;;0.40;0.30;;;;;;;15.66;100.00;96072.07;108400;1268;22550;-78
2022/07/31 06:15:47;;;;;;;0.60;0.40;;;;;;;15.67;100.00;96073.71;108412;1268;23749;-79
2022/07/31 06:18:18;;;;;;;0.30;0.30;;;;;;;15.68;100.00;96080.20;108340;1268;64965;-79
2022/07/31 06:20:49;;;;;;;0.20;0.20;;;;;;;15.69;100.00;96084.88;108403;1268;22536;-79
2022/07/31 06:23:22;;;;;;;1.00;0.10;;;;;;;15.61;100.00;96080.98;108396;1268;22479;-79
2022/07/31 06:25:54;;;;;;;0.10;0.10;;;;;;;15.60;100.00;96083.38;108480;1266;23291;-79
2022/07/31 06:28:25;;;;;;;0.10;0.10;;;;;;;15.61;100.00;96086.90;108257;1268;82939;-79
2022/07/31 06:30:57;;;;;;;0.40;0.10;;;;;;;15.60;100.00;96087.50;108508;1268;22686;-78
2022/07/31 06:33:29;;;;;;;0.00;0.00;;;;;;;15.57;100.00;96087.36;108614;1268;22878;-78
2022/07/31 06:36:00;;;;;;;0.00;0.00;;;;;;;15.55;100.00;96088.29;108555;1267;22568;-78
2022/07/31 06:38:32;;;;;;;0.10;0.10;;;;;;;15.53;100.00;96092.23;108349;1267;81630;-77
2022/07/31 06:41:03;;;;;;;0.20;0.10;;;;;;;15.55;100.00;96093.70;108459;1268;22590;-77
2022/07/31 06:43:34;;;;;;;0.10;0.10;;;;;;;15.56;99.95;96097.77;108545;1268;22562;-77
2022/07/31 06:46:06;;;;;;;0.40;0.20;;;;;;;15.54;99.98;96098.14;108445;1267;22540;-77
2022/07/31 06:48:37;;;;;;;0.20;0.20;;;;;;;15.50;99.99;96098.83;108338;1268;31639;-77
2022/07/31 06:51:09;;;;;;;0.30;0.10;;;;;;;15.50;99.95;96107.16;108466;1268;22619;-77
2022/07/31 06:53:40;;;;;;;0.20;0.10;;;;;;;15.45;99.99;96105.42;108461;1268;22548;-77
2022/07/31 06:56:11;;;;;;;0.10;0.10;;;;;;;15.43;100.00;96106.95;108557;1267;23211;-77
2022/07/31 06:58:43;;;;;;;0.10;0.10;;;;;;;15.41;100.00;96104.23;108437;1268;30722;-77
2022/07/31 07:01:14;;;;;;;0.10;0.10;;;;;;;15.41;100.00;96103.44;108422;1268;22556;-78
2022/07/31 07:03:46;;;;;;;0.40;0.20;;;;;;;15.40;100.00;96106.08;108511;1267;22804;-78
2022/07/31 07:06:18;;;;;;;0.10;0.10;;;;;;;15.39;100.00;96110.55;108484;1267;23245;-77
2022/07/31 07:08:50;;;;;;;0.10;0.10;;;;;;;15.43;100.00;96107.58;108374;1267;79019;-78
2022/07/31 07:11:22;;;;;;;0.20;0.10;;;;;;;15.46;99.97;96112.96;108465;1267;24293;-78
2022/07/31 07:13:54;;;;;;;0.20;0.20;;;;;;;15.50;99.96;96115.27;108517;1267;22761;-77
2022/07/31 07:16:25;;;;;;;0.20;0.10;;;;;;;15.53;100.00;96118.41;108453;1268;22575;-77
2022/07/31 07:18:57;;;;;;;0.10;0.10;;;;;;;15.54;99.98;96118.53;108314;1267;87536;-77
2022/07/31 07:21:28;;;;;;;0.40;0.00;;;;;;;15.59;100.00;96120.66;108448;1268;24359;-77
2022/07/31 07:24:00;;;;;;;0.10;0.10;;;;;;;15.64;100.00;96119.40;108477;1268;25455;-77
2022/07/31 07:26:31;;;;;;;0.10;0.10;;;;;;;15.62;100.00;96118.64;108480;1267;22652;-77
2022/07/31 07:29:04;;;;;;;0.30;0.00;;;;;;;15.61;100.00;96122.58;108374;1268;25508;-77
2022/07/31 07:31:35;;;;;;;0.10;0.10;;;;;;;15.56;100.00;96121.45;108423;1268;25377;-77
2022/07/31 07:34:08;;;;;;;0.20;0.10;;;;;;;15.50;100.00;96122.65;108544;1266;24181;-77
2022/07/31 07:36:40;;;;;;;0.30;0.30;;;;;;;15.44;100.00;96121.42;108477;1267;22742;-77
2022/07/31 07:39:12;;;;;;;0.20;0.20;;;;;;;15.40;100.00;96127.52;108468;1268;22622;-77
2022/07/31 07:41:44;;;;;;;0.20;0.20;;;;;;;15.33;100.00;96129.67;108520;1267;24930;-77
2022/07/31 07:44:16;;;;;;;0.20;0.20;;;;;;;15.29;100.00;96134.09;108389;1268;24896;-77
2022/07/31 07:46:47;;;;;;;0.10;0.00;;;;;;;15.28;100.00;96134.66;108220;1267;99453;-78
2022/07/31 07:49:20;;;;;;;0.50;0.20;;;;;;;15.24;100.00;96134.19;108475;1267;23067;-79
2022/07/31 07:51:51;;;;;;;0.10;0.10;;;;;;;15.21;100.00;96140.26;108411;1267;25834;-75
2022/07/31 07:54:23;;;;;;;0.20;0.20;;;;;;;15.20;100.00;96137.23;108414;1268;24328;-76
2022/07/31 07:56:54;;;;;;;0.20;0.20;;;;;;;15.18;100.00;96147.13;108265;1268;112396;-76
2022/07/31 07:59:26;;;;;;;0.10;0.10;;;;;;;15.12;100.00;96152.86;108439;1267;22619;-76
2022/07/31 08:01:59;;;;;;;0.20;0.20;;;;;;;15.08;100.00;96151.31;108397;1267;22541;-76
2022/07/31 08:04:31;;;;;;;0.20;0.20;;;;;;;15.06;100.00;96156.23;108483;1267;22622;-77
2022/07/31 08:07:03;;;;;;;0.30;0.30;;;;;;;15.01;100.00;96158.04;108102;1268;155273;-78
2022/07/31 08:09:34;;;;;;;0.30;0.30;;;;;;;14.98;100.00;96162.85;108417;1268;22558;-77
2022/07/31 08:12:07;;;;;;;0.40;0.10;;;;;;;14.95;99.87;96163.89;108452;1268;22539;-76
2022/07/31 08:14:39;;;;;;;0.30;0.30;;;;;;;14.92;99.60;96165.25;108446;1267;22599;-75
2022/07/31 08:17:13;;;;;;;1.10;0.30;;;;;;;14.88;99.41;96172.50;108237;1267;75434;-77
2022/07/31 08:19:47;;;;;;;0.80;0.20;;;;;;;14.84;99.13;96174.08;108460;1268;22734;-77
2022/07/31 08:22:19;;;;;;;0.30;0.20;;;;;;;14.83;99.41;96179.45;108458;1268;22691;-77
2022/07/31 08:24:50;;;;;;;0.20;0.20;;;;;;;14.82;99.58;96184.98;108411;1267;22548;-78
2022/07/31 08:27:31;;;;;;;0.30;0.30;;;;;;;14.82;99.85;96189.88;108262;1267;69585;-80
2022/07/31 08:30:06;;;;;;;0.10;0.10;;;;;;;14.80;99.96;96193.11;108445;1268;22610;-81
2022/07/31 08:32:40;;;;;;;0.30;0.30;;;;;;;14.80;100.00;96196.80;108423;1268;22529;-80
2022/07/31 08:35:14;;;;;;;0.20;0.20;;;;;;;14.82;100.00;96197.33;108430;1267;22565;-80
2022/07/31 08:37:49;;;;;;;0.20;0.20;;;;;;;14.83;100.00;96201.52;108219;1267;126094;-79
2022/07/31 08:40:24;;;;;;;0.30;0.20;;;;;;;14.80;100.00;96197.58;108432;1267;22555;-82
2022/07/31 08:43:02;;;;;;;0.80;0.20;;;;;;;14.83;100.00;96197.46;108453;1267;22634;-82
2022/07/31 08:45:40;;;;;;;0.90;0.30;;;;;;;14.91;100.00;96199.77;108425;1268;24227;-82
2022/07/31 08:48:13;;;;;;;0.20;0.20;;;;;;;14.93;100.00;96199.70;108199;1267;170018;-82
2022/07/31 08:50:47;;;;;;;0.10;0.10;;;;;;;14.95;100.00;96203.53;108498;1267;22555;-83
2022/07/31 08:53:27;;;;;;;0.10;0.10;;;;;;;14.93;100.00;96197.88;108511;1267;22552;-83
2022/07/31 08:55:59;;;;;;;0.30;0.20;;;;;;;14.90;100.00;96199.50;108459;1268;23875;-83
2022/07/31 08:58:33;;;;;;;0.20;0.20;;;;;;;14.87;100.00;96195.17;107179;1267;1578464;-83
2022/07/31 09:01:05;;;;;;;0.30;0.20;;;;;;;14.77;100.00;96198.63;108440;1268;25244;-82
2022/07/31 09:03:43;;;;;;;1.50;0.30;;;;;;;14.72;100.00;96196.21;108474;1267;22523;-81
2022/07/31 09:06:15;;;;;;;0.40;0.10;;;;;;;14.75;100.00;96204.59;108419;1268;22589;-81
2022/07/31 09:08:48;;;;;;;0.20;0.20;;;;;;;14.78;100.00;96195.29;106929;1268;1774333;-81
2022/07/31 09:11:21;;;;;;;0.40;0.10;;;;;;;14.78;100.00;96197.33;108392;1267;22549;-84
2022/07/31 09:13:57;;;;;;;0.00;0.00;;;;;;;14.80;100.00;96200.46;108475;1268;22517;-83
2022/07/31 09:16:29;;;;;;;0.10;0.10;;;;;;;14.78;100.00;96200.10;108432;1267;23344;-83
2022/07/31 09:19:02;;;;;;;0.20;0.20;;;;;;;14.72;100.00;96202.09;108288;1267;80128;-84
2022/07/31 09:21:44;;;;;;;0.00;0.00;;;;;;;14.73;100.00;96203.77;108460;1268;24231;-83
2022/07/31 09:24:29;;;;;;;0.10;0.10;;;;;;;14.76;100.00;96203.83;108488;1268;22587;-83
2022/07/31 09:27:11;;;;;;;0.00;0.00;;;;;;;14.78;100.00;96207.94;108223;1268;78630;-84
2022/07/31 09:29:51;;;;;;;0.10;0.00;;;;;;;14.81;100.00;96208.90;108480;1268;23435;-83
2022/07/31 09:32:21;;;;;;;;;;;;;;;14.81;100.00;96212.08;108541;1267;23295;-82
2022/07/31 09:34:52;;;;;;;0.20;0.20;;;;;;;14.79;100.00;96209.47;108570;1267;22565;-83
2022/07/31 09:37:28;;;;;;;0.10;0.10;;;;;;;14.71;100.00;96208.65;108452;1268;35048;-83
2022/07/31 09:39:59;;;;;;;0.30;0.10;;;;;;;14.69;100.00;96215.67;108543;1268;23126;-82
2022/07/31 09:42:44;;;;;;;0.40;0.20;;;;;;;14.68;100.00;96215.93;108540;1268;23350;-82
2022/07/31 09:45:26;;;;;;;0.10;0.00;;;;;;;14.66;100.00;96219.11;108480;1268;22536;-82
2022/07/31 09:48:11;;;;;;;0.00;0.00;;;;;;;14.67;100.00;96218.92;108110;1268;182570;-82
2022/07/31 09:50:56;;;;;;;0.20;0.10;;;;;;;14.64;100.00;96218.73;108493;1268;22550;-83
2022/07/31 09:53:41;;;;;;;0.20;0.10;;;;;;;14.61;100.00;96222.23;108454;1267;23855;-82
2022/07/31 09:56:14;;;;;;;0.10;0.00;;;;;;;14.53;100.00;96225.94;108468;1267;22574;-81
2022/07/31 09:58:50;;;;;;;0.10;0.10;;;;;;;14.44;100.00;96231.52;108512;1268;42772;-81
2022/07/31 10:01:24;;;;;;;0.20;0.20;;;;;;;14.43;100.00;96227.34;108597;1267;22628;-80
2022/07/31 10:04:02;;;;;;;0.20;0.10;;;;;;;14.39;100.00;96233.33;108509;1267;24261;-81
2022/07/31 10:06:36;;;;;;;0.20;0.20;;;;;;;14.36;100.00;96240.34;108624;1267;23692;-82
2022/07/31 10:09:11;;;;;;;0.20;0.10;;;;;;;14.38;100.00;96234.98;108550;1266;22581;-81
2022/07/31 10:11:43;;;;;;;0.20;0.20;;;;;;;14.38;100.00;96238.48;108629;1267;22579;-80
2022/07/31 10:14:22;;;;;;;0.20;0.20;;;;;;;14.36;100.00;96241.14;108581;1267;23144;-81
2022/07/31 10:16:57;;;;;;;0.10;0.10;;;;;;;14.37;100.00;96250.14;106649;1268;2336352;-80
2022/07/31 10:19:34;;;;;;;0.20;0.10;;;;;;;14.34;100.00;96248.26;108471;1268;22774;-81
2022/07/31 10:22:09;;;;;;;0.20;0.20;;;;;;;14.35;100.00;96251.67;108573;1267;22555;-81
2022/07/31 10:24:49;;;;;;;0.20;0.20;;;;;;;14.39;100.00;96252.15;108583;1267;22663;-81
2022/07/31 10:27:22;;;;;;;0.20;0.20;;;;;;;14.41;100.00;96249.80;108278;1268;135620;-81
2022/07/31 10:29:56;;;;;;;0.20;0.20;;;;;;;14.48;100.00;96247.31;108574;1268;22552;-81
2022/07/31 10:32:29;;;;;;;0.30;0.30;;;;;;;14.49;100.00;96248.30;108568;1268;25594;-82
2022/07/31 10:35:03;;;;;;;0.40;0.40;;;;;;;14.47;100.00;96248.73;108512;1268;22591;-81
2022/07/31 10:37:41;;;;;;;0.30;0.20;;;;;;;14.50;100.00;96249.66;108343;1267;131389;-81
2022/07/31 10:40:25;;;;;;;0.30;0.30;;;;;;;14.48;100.00;96247.27;108580;1267;22530;-80
2022/07/31 10:43:17;;;;;;;0.30;0.30;;;;;;;14.45;100.00;96249.64;108481;1268;22678;-82
2022/07/31 10:45:53;;;;;;;0.50;0.20;;;;;;;14.46;100.00;96251.36;108554;1267;22549;-81
2022/07/31 10:48:28;;;;;;;0.30;0.10;;;;;;;14.41;100.00;96254.82;108239;1267;110740;-80
2022/07/31 10:51:08;;;;;;;0.90;0.30;;;;;;;14.38;100.00;96257.20;108593;1266;22573;-81
2022/07/31 10:53:40;;;;;;;0.20;0.20;;;;;;;14.36;100.00;96258.31;108567;1267;25318;-81
2022/07/31 10:56:12;;;;;;;0.30;0.30;;;;;;;14.36;100.00;96258.33;108506;1268;22561;-80
2022/07/31 10:58:53;;;;;;;0.10;0.10;;;;;;;14.38;100.00;96258.73;108147;1268;163325;-80
2022/07/31 11:01:26;;;;;;;0.70;0.40;;;;;;;14.37;100.00;96263.79;108581;1268;23432;-81
2022/07/31 11:04:03;;;;;;;0.10;0.10;;;;;;;14.38;100.00;96265.67;108606;1268;22596;-81
2022/07/31 11:06:47;;;;;;;0.10;0.10;;;;;;;14.44;100.00;96264.43;108551;1268;22562;-81
2022/07/31 11:09:27;;;;;;;1.30;0.20;;;;;;;14.45;100.00;96265.55;108521;1268;22817;-81
2022/07/31 11:12:00;;;;;;;0.30;0.20;;;;;;;14.48;100.00;96267.90;108519;1268;23789;-82
2022/07/31 11:14:38;;;;;;;0.20;0.10;;;;;;;14.53;100.00;96267.08;108519;1267;23696;-82
2022/07/31 11:17:11;;;;;;;1.30;0.20;;;;;;;14.58;100.00;96267.30;108352;1267;93005;-81
2022/07/31 11:19:44;;;;;;;0.10;0.10;;;;;;;14.61;100.00;96269.09;108512;1267;23095;-82
2022/07/31 11:22:19;;;;;;;0.10;0.10;;;;;;;14.62;100.00;96267.23;108489;1268;24171;-82
2022/07/31 11:24:57;;;;;;;1.20;0.30;;;;;;;14.62;100.00;96269.46;108592;1266;23561;-81
2022/07/31 11:27:38;;;;;;;0.30;0.30;;;;;;;14.57;100.00;96279.73;108293;1268;112817;-82
2022/07/31 11:30:14;;;;;;;0.10;0.10;;;;;;;14.54;100.00;96275.05;108484;1268;22581;-81
2022/07/31 11:32:51;;;;;;;0.20;0.20;;;;;;;14.52;100.00;96274.73;108512;1267;22638;-81
2022/07/31 11:35:35;;;;;;;0.50;0.20;;;;;;;14.52;100.00;96275.86;108605;1267;22564;-81
2022/07/31 11:38:08;;;;;;;0.10;0.10;;;;;;;14.58;100.00;96272.85;108264;1267;103440;-80
2022/07/31 11:40:52;;;;;;;0.10;0.10;;;;;;;14.58;100.00;96272.95;108571;1267;22473;-80
2022/07/31 11:43:21;;;;;;;;;;;;;;;14.51;100.00;96265.91;108559;1267;22535;-81
2022/07/31 11:45:54;;;;;;;0.20;0.20;;;;;;;14.50;100.00;96277.62;108618;1267;23044;-81